ADDS METAR Data INFO
IDs: Format: Raw Decoded Include TAF

Data at: 0212 UTC 17 Aug 2018

PASK 170156Z AUTO 22009KT 10SM CLR 15/06 A2977 RMK AO2 SLP078 T01500061 $
PASK 170056Z AUTO 22012KT 10SM CLR 15/05 A2977 RMK AO2 SLP080 T01500050 $
PASK 162356Z AUTO 22009KT 10SM CLR 15/06 A2979 RMK AO2 SLP084 T01500056 10150 20111 58009 $
PASK 162256Z AUTO 22010KT 10SM CLR 14/06 A2980 RMK AO2 SLP089 T01390056 $
PASK 162156Z AUTO 22010KT 10SM SCT090 13/05 A2981 RMK AO2 SLP092 T01330050 $
PASK 162056Z AUTO 23007KT 10SM SCT080 OVC095 12/06 A2982 RMK AO2 SLP094 T01170056 56003 $
PASK 161956Z AUTO 24012KT 10SM BKN080 12/04 A2982 RMK AO2 SLP094 T01170044 $
PASK 161856Z AUTO 24011KT 10SM OVC095 12/05 A2982 RMK AO2 SLP095 T01170050 $
PASK 161756Z AUTO 24012G16KT 10SM OVC095 11/05 A2982 RMK AO2 SLP097 T01110050 10111 20094 57006 $
PASK 161656Z AUTO 24010G17KT 10SM BKN070 OVC085 11/05 A2983 RMK AO2 SLP098 T01110050 $
PASK 161556Z AUTO 24012KT 10SM CLR 11/06 A2983 RMK AO2 SLP100 T01060056 $
PASK 161456Z AUTO 24009KT 10SM CLR 10/06 A2984 RMK AO2 SLP102 T01000056 56009 $
PASK 161356Z AUTO 22008KT 10SM FEW080 09/06 A2984 RMK AO2 SLP103 T00940061 $
PASK 161256Z AUTO 23013KT 10SM BKN085 11/06 A2985 RMK AO2 SLP106 T01060061 $
PASK 161156Z AUTO 23009KT 10SM CLR 10/07 A2987 RMK AO2 SLP111 T01000067 10106 20100 56006 $
PASK 161056Z AUTO 23010KT 10SM CLR 11/07 A2987 RMK AO2 SLP112 T01060067 $
PASK 160956Z AUTO 23010KT 10SM CLR 11/07 A2988 RMK AO2 SLP115 T01060067 $
PASK 160856Z AUTO 24010KT 10SM CLR 10/07 A2988 RMK AO2 SLP117 T01000067 401170039 56004 $
PASK 160756Z AUTO 24009KT 10SM CLR 11/07 A2989 RMK AO2 SLP117 T01060067 $
PASK 160656Z AUTO 24010KT 10SM SCT070 11/07 A2989 RMK AO2 SLP118 T01060072 $
PASK 160556Z AUTO 25010KT 10SM BKN060 11/07 A2990 RMK AO2 SLP121 60000 T01060067 10111 20089 55006 $
PASK 160456Z AUTO 25010KT 10SM SCT018 OVC060 11/07 A2989 RMK AO2 SLP120 T01060067 $
PASK 160443Z AUTO 25012KT 10SM BKN018 BKN060 11/07 A2990 RMK AO2 $
PASK 160432Z AUTO 26012G16KT 10SM SCT018 BKN060 11/07 A2990 RMK AO2 $
PASK 160356Z AUTO 26010G16KT 10SM BKN018 OVC080 11/07 A2991 RMK AO2 SLP126 T01060072 $
PASK 160256Z AUTO 26010KT 10SM CLR 10/06 A2991 RMK AO2 RAE14 SLP127 P0000 60000 T01000056 58006 $
PASK 160156Z AUTO 26008KT 10SM -RA OVC060 09/07 A2992 RMK AO2 SLP128 P0000 T00940072 $
PASK 160056Z AUTO 27005KT 10SM -RA FEW050 OVC060 09/06 A2993 RMK AO2 RAB26 SLP132 P0000 T00940061 $
PASK 152356Z AUTO 28006KT 10SM OVC055 09/04 A2993 RMK AO2 RAE37 SLP133 P0000 60000 T00940039 10117 20078 50004 $
PASK 152256Z AUTO 28011KT 10SM -RA BKN055 BKN070 OVC080 09/03 A2994 RMK AO2 RAB27 SLP135 P0000 T00940033 $
PASK 152156Z AUTO 30010KT 10SM SCT090 11/04 A2993 RMK AO2 SLP132 T01110039 $
PASK 152056Z AUTO 28008KT 10SM CLR 11/02 A2992 RMK AO2 SLP130 T01110022 51003 $
PASK 151956Z AUTO 27009KT 10SM CLR 11/04 A2992 RMK AO2 SLP128 T01060039 $
PASK 151856Z AUTO 25009KT 10SM CLR 10/01 A2992 RMK AO2 SLP129 T01000011 $
PASK 151756Z AUTO 26003KT 10SM CLR 08/04 A2991 RMK AO2 SLP127 T00780039 10078 20039 52003 $
PASK 151656Z AUTO 00000KT 10SM CLR 07/04 A2991 RMK AO2 SLP127 T00670039 $
PASK 151556Z AUTO 00000KT 10SM CLR 06/03 A2991 RMK AO2 SLP124 T00610028 $
PASK 151456Z AUTO 00000KT 10SM CLR 05/03 A2990 RMK AO2 SLP124 T00500028 50001 $